Time;durP1;ratioP1;P1;durP2;ratioP2;P2;SDS_P1;SDS_P2;PMS_P1;PMS_P2;Temp;Humidity;BMP_temperature;BMP_pressure;BME280_temperature;BME280_humidity;BME280_pressure;Samples;Min_cycle;Max_cycle;Signal;HPM_P1;HPM_P2
2021/07/14 00:00:53;;;;;;;28.23;21.63;;;20.20;99.90;;;;;;4752602;29;20057;-82
2021/07/14 00:03:19;;;;;;;27.27;20.05;;;20.20;99.90;;;;;;4767280;29;20043;-82
2021/07/14 00:05:46;;;;;;;25.83;20.33;;;20.20;99.90;;;;;;4767431;29;20047;-82
2021/07/14 00:08:12;;;;;;;29.02;19.15;;;20.10;99.90;;;;;;4787778;29;20087;-82
2021/07/14 00:10:39;;;;;;;27.75;18.60;;;20.20;99.90;;;;;;4766219;29;20059;-81
2021/07/14 00:23:39;;;;;;;20.50;17.45;;;20.20;99.90;;;;;;4798783;29;20031;-81
2021/07/14 00:26:09;;;;;;;25.92;19.42;;;20.20;99.90;;;;;;4782636;29;20047;-81
2021/07/14 00:28:37;;;;;;;28.77;21.02;;;20.10;99.90;;;;;;4766085;29;20038;-81
2021/07/14 00:31:06;;;;;;;21.27;16.45;;;20.10;99.90;;;;;;4781718;29;20378;-81
2021/07/14 00:33:47;;;;;;;29.13;20.55;;;20.10;99.90;;;;;;4787719;29;20041;-82
2021/07/14 00:36:15;;;;;;;30.20;20.75;;;20.10;99.90;;;;;;4771918;29;20051;-81
2021/07/14 00:38:42;;;;;;;27.50;19.50;;;20.10;99.90;;;;;;4766807;29;20042;-82
2021/07/14 00:41:08;;;;;;;26.08;17.40;;;20.10;99.90;;;;;;4782366;29;20053;-82
2021/07/14 00:43:35;;;;;;;28.95;18.23;;;20.10;99.90;;;;;;4798631;29;20050;-82
2021/07/14 00:46:25;;;;;;;21.35;16.13;;;20.10;99.90;;;;;;4753783;29;20070;-81
2021/07/14 00:49:01;;;;;;;26.17;19.13;;;20.10;99.90;;;;;;4781540;29;20035;-81
2021/07/14 00:51:31;;;;;;;23.83;20.67;;;20.10;99.90;;;;;;4781212;29;20101;-81
2021/07/14 00:53:58;;;;;;;23.42;18.40;;;20.10;99.90;;;;;;4781961;29;20042;-81
2021/07/14 00:56:26;;;;;;;28.95;18.85;;;20.10;99.90;;;;;;4770088;29;20066;-81
2021/07/14 00:58:54;;;;;;;27.48;18.88;;;20.10;99.90;;;;;;4775914;29;20058;-81
2021/07/14 01:01:22;;;;;;;23.30;17.33;;;20.10;99.90;;;;;;4769988;29;20054;-82
2021/07/14 01:04:26;;;;;;;25.88;19.23;;;20.10;99.90;;;;;;4787666;29;20046;-82
2021/07/14 01:07:22;;;;;;;21.83;17.88;;;20.00;99.90;;;;;;4800150;29;20411;-82
2021/07/14 01:10:04;;;;;;;21.80;16.80;;;20.00;99.90;;;;;;4787453;29;20043;-81
2021/07/14 01:12:51;;;;;;;19.52;15.35;;;20.00;99.90;;;;;;4807407;29;20051;-81
2021/07/14 01:15:22;;;;;;;20.70;16.73;;;20.00;99.90;;;;;;4806121;29;20499;-81
2021/07/14 01:17:59;;;;;;;19.05;15.20;;;20.00;99.90;;;;;;4768884;29;20143;-82
2021/07/14 01:20:28;;;;;;;23.45;18.15;;;20.00;99.90;;;;;;4803270;29;20050;-82
2021/07/14 01:23:16;;;;;;;28.45;19.67;;;20.00;99.90;;;;;;4791283;29;20046;-82
2021/07/14 01:25:51;;;;;;;21.67;17.48;;;19.90;99.90;;;;;;4799208;29;20042;-82
2021/07/14 01:28:20;;;;;;;20.00;15.98;;;19.90;99.90;;;;;;4784271;29;20042;-82
2021/07/14 01:30:50;;;;;;;19.10;16.63;;;19.90;99.90;;;;;;4770757;29;20053;-82
2021/07/14 01:33:32;;;;;;;24.52;17.10;;;20.00;99.90;;;;;;4786158;29;20039;-82
2021/07/14 01:36:02;;;;;;;21.98;16.80;;;20.00;99.90;;;;;;4784226;29;20050;-81
2021/07/14 01:38:30;;;;;;;22.90;16.90;;;19.90;99.90;;;;;;4768621;29;20500;-81
2021/07/14 01:41:00;;;;;;;19.52;15.65;;;19.90;99.90;;;;;;4785623;29;20092;-81
2021/07/14 01:43:33;;;;;;;21.25;16.75;;;20.00;99.90;;;;;;4803192;29;20042;-81
2021/07/14 01:46:00;;;;;;;;;;;19.90;99.90;;;;;;4784773;29;20047;-82
2021/07/14 01:48:30;;;;;;;23.20;17.20;;;19.90;99.90;;;;;;4801986;29;19924;-82
2021/07/14 01:50:57;;;;;;;23.25;16.35;;;19.90;99.90;;;;;;4790476;29;20050;-82
2021/07/14 01:53:25;;;;;;;24.33;17.55;;;19.90;99.90;;;;;;4784014;29;20047;-82
2021/07/14 01:55:53;;;;;;;22.95;16.60;;;19.90;99.90;;;;;;4792333;29;20063;-81
2021/07/14 01:58:23;;;;;;;22.45;16.88;;;19.90;99.90;;;;;;4769920;29;20546;-81
2021/07/14 02:00:52;;;;;;;21.13;15.88;;;19.90;99.90;;;;;;4783491;29;20051;-82
2021/07/14 02:03:42;;;;;;;22.48;16.27;;;19.90;99.90;;;;;;4769054;29;20051;-82
2021/07/14 02:06:10;;;;;;;22.30;17.77;;;19.90;99.90;;;;;;4771919;29;20053;-81
2021/07/14 02:08:38;;;;;;;22.73;16.88;;;19.90;99.90;;;;;;4784247;29;20388;-82
2021/07/14 02:11:05;;;;;;;23.05;16.55;;;19.80;99.90;;;;;;4802183;29;20987;-76
2021/07/14 02:13:34;;;;;;;26.25;16.83;;;19.90;99.90;;;;;;4805457;29;20049;-75
2021/07/14 02:16:02;;;;;;;23.20;15.68;;;19.90;99.90;;;;;;4792069;29;20431;-76
2021/07/14 02:18:40;;;;;;;22.10;16.48;;;19.80;99.90;;;;;;4773891;29;20042;-76
2021/07/14 02:21:07;;;;;;;22.08;15.43;;;19.90;99.90;;;;;;4788295;29;20058;-76
2021/07/14 02:23:36;;;;;;;20.60;15.82;;;19.80;99.90;;;;;;4788152;29;20462;-76
2021/07/14 02:26:04;;;;;;;16.95;12.73;;;19.90;99.90;;;;;;4774162;29;20503;-76
2021/07/14 02:28:31;;;;;;;21.30;15.23;;;19.90;99.90;;;;;;4788395;29;20033;-76
2021/07/14 02:30:57;;;;;;;21.98;15.45;;;19.90;99.90;;;;;;4773028;29;20042;-76
2021/07/14 02:33:24;;;;;;;19.65;15.25;;;19.80;99.90;;;;;;4786919;29;20046;-76
2021/07/14 02:35:54;;;;;;;22.92;18.40;;;19.90;99.90;;;;;;4776300;29;20047;-76
2021/07/14 02:38:25;;;;;;;22.02;15.68;;;19.90;99.90;;;;;;4771904;29;20050;-76
2021/07/14 02:40:55;;;;;;;20.98;15.60;;;19.90;99.90;;;;;;4791197;29;20046;-76
2021/07/14 02:43:28;;;;;;;21.60;15.98;;;19.80;99.90;;;;;;4805484;29;20042;-76
2021/07/14 02:45:59;;;;;;;26.80;18.08;;;19.90;99.90;;;;;;4788932;29;20071;-76
2021/07/14 02:48:27;;;;;;;23.02;16.33;;;19.80;99.90;;;;;;4772540;29;20455;-76
2021/07/14 02:50:56;;;;;;;25.25;17.15;;;19.80;99.90;;;;;;4802642;29;20050;-76
2021/07/14 02:53:30;;;;;;;25.23;17.85;;;19.90;99.90;;;;;;4786549;29;20035;-75
2021/07/14 02:56:09;;;;;;;24.17;16.75;;;19.80;99.90;;;;;;4804693;29;20053;-76
2021/07/14 02:58:36;;;;;;;26.52;18.20;;;19.90;99.90;;;;;;4786106;29;20073;-75
2021/07/14 03:01:03;;;;;;;26.30;19.85;;;19.90;99.90;;;;;;4783479;29;20058;-76
2021/07/14 03:03:30;;;;;;;31.70;22.85;;;19.80;99.90;;;;;;4787269;29;20043;-76
2021/07/14 03:06:00;;;;;;;30.17;20.42;;;19.80;99.90;;;;;;4786516;29;20929;-76
2021/07/14 03:08:29;;;;;;;24.58;16.75;;;19.80;99.90;;;;;;4789090;29;20448;-75
2021/07/14 03:10:58;;;;;;;26.25;18.25;;;19.80;99.90;;;;;;4786106;29;20045;-75
2021/07/14 03:13:26;;;;;;;26.58;18.10;;;19.80;99.90;;;;;;4783299;29;20046;-75
2021/07/14 03:15:54;;;;;;;25.17;18.02;;;19.80;99.90;;;;;;4795770;29;20046;-76
2021/07/14 03:18:22;;;;;;;24.35;17.85;;;19.80;99.90;;;;;;4783270;29;20499;-76
2021/07/14 03:20:52;;;;;;;25.35;17.48;;;19.70;99.90;;;;;;4789197;29;21069;-76
2021/07/14 03:23:20;;;;;;;28.92;18.70;;;19.70;99.90;;;;;;4786749;29;20049;-75
2021/07/14 03:25:51;;;;;;;30.02;20.40;;;19.70;99.90;;;;;;4785778;29;20058;-76
2021/07/14 03:28:19;;;;;;;33.33;21.00;;;19.70;99.90;;;;;;4770933;29;20050;-76
2021/07/14 03:30:47;;;;;;;28.63;18.00;;;19.60;99.90;;;;;;4802375;29;20589;-75
2021/07/14 03:33:15;;;;;;;33.90;20.80;;;19.60;99.90;;;;;;4786412;29;20043;-76
2021/07/14 03:35:43;;;;;;;26.83;18.98;;;19.60;99.90;;;;;;4788153;29;20102;-76
2021/07/14 03:38:11;;;;;;;34.17;23.38;;;19.60;99.90;;;;;;4786416;29;20066;-76
2021/07/14 03:40:41;;;;;;;26.00;17.58;;;19.60;99.90;;;;;;4799848;29;20054;-76
2021/07/14 03:43:08;;;;;;;29.75;20.33;;;19.60;99.90;;;;;;4782077;29;20049;-77
2021/07/14 03:45:37;;;;;;;29.67;19.70;;;19.60;99.90;;;;;;4798776;29;20046;-76
2021/07/14 03:48:04;;;;;;;27.30;19.50;;;19.60;99.90;;;;;;4765546;29;20423;-81
2021/07/14 03:50:31;;;;;;;26.00;20.02;;;19.60;99.90;;;;;;4781581;29;20043;-82
2021/07/14 03:52:58;;;;;;;23.63;17.40;;;19.60;99.90;;;;;;4797178;29;21166;-82
2021/07/14 03:55:27;;;;;;;26.95;20.25;;;19.60;99.90;;;;;;4769156;29;20833;-82
2021/07/14 03:57:54;;;;;;;28.67;21.17;;;19.60;99.90;;;;;;4800744;29;20510;-82
2021/07/14 04:00:20;;;;;;;30.10;21.27;;;19.50;99.90;;;;;;4782775;29;20046;-82
2021/07/14 04:02:47;;;;;;;25.52;19.70;;;19.50;99.90;;;;;;4781766;29;20058;-82
2021/07/14 04:05:17;;;;;;;28.83;21.00;;;19.50;99.90;;;;;;4767717;29;20051;-82
2021/07/14 04:07:46;;;;;;;30.92;21.95;;;19.50;99.90;;;;;;4802788;29;20054;-82
2021/07/14 04:10:13;;;;;;;27.83;20.85;;;19.60;99.90;;;;;;4766275;29;20062;-82
2021/07/14 04:12:40;;;;;;;31.65;23.55;;;19.60;99.90;;;;;;4781718;29;20598;-82
2021/07/14 04:15:07;;;;;;;34.30;23.48;;;19.60;99.90;;;;;;4782129;29;20043;-82
2021/07/14 04:17:34;;;;;;;27.38;20.30;;;19.60;99.90;;;;;;4768126;29;20066;-82
2021/07/14 04:20:01;;;;;;;27.80;19.35;;;19.60;99.90;;;;;;4782570;29;20380;-82
2021/07/14 04:22:27;;;;;;;31.73;22.50;;;19.60;99.90;;;;;;4753013;29;20066;-81
2021/07/14 04:24:54;;;;;;;30.02;20.05;;;19.60;99.90;;;;;;4800719;29;20039;-82
2021/07/14 04:27:21;;;;;;;22.92;16.98;;;19.60;99.90;;;;;;4769622;29;20057;-82
2021/07/14 04:29:47;;;;;;;32.03;20.73;;;19.60;99.90;;;;;;4782401;29;20412;-82
2021/07/14 04:32:14;;;;;;;26.90;17.30;;;19.50;99.90;;;;;;4800080;29;20487;-83
2021/07/14 04:34:40;;;;;;;27.23;18.92;;;19.50;99.90;;;;;;4788469;29;20058;-82
2021/07/14 04:37:06;;;;;;;27.67;16.92;;;19.50;99.90;;;;;;4801825;29;20411;-82
2021/07/14 04:39:33;;;;;;;25.98;17.20;;;19.50;99.90;;;;;;4784525;29;20848;-82
2021/07/14 04:41:59;;;;;;;23.45;16.40;;;19.50;99.90;;;;;;4802212;29;20039;-82
2021/07/14 04:44:38;;;;;;;23.13;16.83;;;19.50;99.90;;;;;;4803896;29;20766;-82
2021/07/14 04:47:04;;;;;;;26.25;18.63;;;19.50;99.90;;;;;;4784966;29;20061;-82
2021/07/14 04:49:31;;;;;;;22.63;17.02;;;19.50;99.90;;;;;;4785856;29;20596;-82
2021/07/14 04:51:57;;;;;;;21.88;15.55;;;19.50;99.90;;;;;;4786020;29;20043;-82
2021/07/14 04:54:24;;;;;;;20.90;13.93;;;19.50;99.90;;;;;;4785520;29;20038;-82
2021/07/14 04:56:51;;;;;;;21.27;15.27;;;19.50;99.90;;;;;;4770526;29;20051;-82
2021/07/14 04:59:17;;;;;;;20.73;14.50;;;19.50;99.90;;;;;;4784497;29;20051;-83
2021/07/14 05:01:44;;;;;;;15.02;11.05;;;19.50;99.90;;;;;;4801419;29;20075;-82
2021/07/14 05:04:12;;;;;;;21.73;14.52;;;19.50;99.90;;;;;;4769805;29;20602;-83
2021/07/14 05:06:39;;;;;;;23.02;15.90;;;19.50;99.90;;;;;;4800338;29;20051;-82
2021/07/14 05:09:06;;;;;;;20.85;14.80;;;19.50;99.90;;;;;;4770637;29;20499;-82
2021/07/14 05:11:32;;;;;;;20.85;15.15;;;19.60;99.90;;;;;;4767469;29;20054;-83
2021/07/14 05:13:59;;;;;;;17.70;14.35;;;19.60;99.90;;;;;;4787815;29;20046;-82
2021/07/14 05:16:25;;;;;;;19.40;14.50;;;19.60;99.90;;;;;;4784827;29;20522;-83
2021/07/14 05:18:52;;;;;;;18.92;13.55;;;19.60;99.90;;;;;;4800489;29;20499;-82
2021/07/14 05:21:18;;;;;;;20.35;14.45;;;19.60;99.90;;;;;;4802941;29;20043;-84
2021/07/14 05:23:44;;;;;;;19.38;14.25;;;19.60;99.90;;;;;;4788573;29;20483;-83
2021/07/14 05:26:12;;;;;;;21.48;16.13;;;19.60;99.90;;;;;;4785948;29;20157;-83
2021/07/14 05:28:38;;;;;;;21.13;15.38;;;19.60;99.90;;;;;;4768685;29;20538;-82
2021/07/14 05:31:05;;;;;;;19.02;14.00;;;19.60;99.90;;;;;;4803758;29;20035;-83
2021/07/14 05:33:31;;;;;;;22.40;15.00;;;19.60;99.90;;;;;;4786621;29;20042;-82
2021/07/14 05:35:58;;;;;;;22.00;15.15;;;19.60;99.90;;;;;;4784254;29;20058;-82
2021/07/14 05:38:24;;;;;;;18.38;13.73;;;19.60;99.90;;;;;;4784553;29;20050;-81
2021/07/14 05:40:52;;;;;;;15.23;11.77;;;19.70;99.90;;;;;;4799752;29;20526;-82
2021/07/14 05:43:18;;;;;;;14.82;11.02;;;19.70;99.90;;;;;;4801775;29;21501;-82
2021/07/14 05:45:46;;;;;;;16.05;11.80;;;19.70;99.90;;;;;;4785108;29;20039;-82
2021/07/14 05:48:13;;;;;;;18.30;11.50;;;19.80;99.90;;;;;;4769095;29;20066;-83
2021/07/14 05:50:40;;;;;;;17.02;12.50;;;19.80;99.90;;;;;;4783589;29;20050;-82
2021/07/14 05:53:07;;;;;;;17.73;13.60;;;19.80;99.90;;;;;;4782242;29;20042;-81
2021/07/14 05:55:33;;;;;;;18.25;13.18;;;19.80;99.90;;;;;;4768538;29;20046;-82
2021/07/14 05:58:00;;;;;;;18.75;13.82;;;19.90;99.90;;;;;;4801203;29;20043;-82
2021/07/14 06:00:27;;;;;;;20.05;14.75;;;19.90;99.90;;;;;;4783371;29;20067;-84
2021/07/14 06:02:54;;;;;;;16.65;13.27;;;19.90;99.90;;;;;;4805379;29;20046;-82
2021/07/14 06:05:21;;;;;;;18.00;12.57;;;19.90;99.90;;;;;;4802471;29;20047;-81
2021/07/14 06:07:47;;;;;;;18.95;14.05;;;19.90;99.90;;;;;;4805686;29;20039;-79
2021/07/14 06:10:14;;;;;;;21.02;14.88;;;20.00;99.90;;;;;;4805001;29;20050;-79
2021/07/14 06:12:40;;;;;;;16.30;11.63;;;20.00;99.90;;;;;;4806561;29;20388;-79
2021/07/14 06:15:07;;;;;;;16.40;13.88;;;20.00;99.90;;;;;;4809134;29;20533;-79
2021/07/14 06:17:34;;;;;;;15.23;13.38;;;20.10;99.90;;;;;;4773483;29;20046;-79
2021/07/14 06:20:01;;;;;;;18.55;14.02;;;20.10;99.90;;;;;;4780541;29;20047;-82
2021/07/14 06:22:27;;;;;;;17.02;14.70;;;20.10;99.90;;;;;;4801097;29;20047;-81
2021/07/14 06:24:54;;;;;;;16.80;13.45;;;20.20;99.90;;;;;;4754400;29;20804;-82
2021/07/14 06:27:21;;;;;;;16.77;13.57;;;20.30;99.90;;;;;;4792050;29;20050;-81
2021/07/14 06:29:47;;;;;;;18.30;14.43;;;20.40;99.90;;;;;;4768005;29;20039;-81
2021/07/14 06:32:13;;;;;;;18.17;14.98;;;20.40;99.90;;;;;;4784828;29;20042;-82
2021/07/14 06:34:41;;;;;;;17.60;14.30;;;20.40;99.90;;;;;;4799744;29;20047;-82
2021/07/14 06:37:08;;;;;;;17.50;14.23;;;20.50;99.90;;;;;;4803627;29;21089;-82
2021/07/14 06:39:35;;;;;;;20.85;15.52;;;20.60;99.90;;;;;;4781993;29;20526;-82
2021/07/14 06:42:01;;;;;;;17.48;14.02;;;20.60;99.90;;;;;;4801240;29;20047;-82
2021/07/14 06:44:28;;;;;;;21.75;17.27;;;20.60;99.90;;;;;;4789198;29;20406;-84
2021/07/14 06:46:54;;;;;;;18.52;15.27;;;20.70;99.90;;;;;;4783759;29;20047;-82
2021/07/14 06:49:20;;;;;;;15.88;13.82;;;20.70;99.90;;;;;;4769019;29;20046;-82
2021/07/14 06:51:48;;;;;;;16.73;13.50;;;20.70;99.90;;;;;;4780166;29;20065;-81
2021/07/14 06:54:14;;;;;;;16.08;13.25;;;20.80;99.90;;;;;;4769245;29;20822;-81
2021/07/14 06:56:41;;;;;;;18.33;13.85;;;20.80;99.90;;;;;;4798651;29;20035;-82
2021/07/14 06:59:07;;;;;;;17.63;14.38;;;20.90;99.90;;;;;;4784771;29;20042;-81
2021/07/14 07:01:33;;;;;;;14.27;12.38;;;20.90;99.90;;;;;;4781549;29;20053;-81
2021/07/14 07:04:00;;;;;;;13.57;12.20;;;21.00;99.90;;;;;;4783086;29;20526;-81
2021/07/14 07:06:26;;;;;;;13.40;11.80;;;21.20;99.90;;;;;;4798668;29;20038;-81
2021/07/14 07:08:53;;;;;;;13.73;12.27;;;21.20;99.90;;;;;;4798077;29;20058;-81
2021/07/14 07:11:19;;;;;;;13.15;10.85;;;21.20;99.90;;;;;;4750991;29;20059;-81
2021/07/14 07:13:46;;;;;;;11.98;10.63;;;21.20;99.90;;;;;;4783800;29;20042;-81
2021/07/14 07:16:12;;;;;;;11.95;9.60;;;21.20;99.90;;;;;;4786329;29;20067;-80
2021/07/14 07:18:38;;;;;;;15.85;12.00;;;21.10;99.90;;;;;;4781454;29;20051;-81
2021/07/14 07:21:07;;;;;;;15.23;13.63;;;21.10;99.90;;;;;;4783923;29;20043;-81
2021/07/14 07:23:36;;;;;;;13.30;11.90;;;21.10;99.90;;;;;;4770706;29;20043;-82
2021/07/14 07:26:05;;;;;;;17.60;13.55;;;21.00;99.90;;;;;;4822566;29;20046;-82
2021/07/14 07:28:39;;;;;;;17.10;15.02;;;21.00;99.90;;;;;;4781315;29;20502;-81
2021/07/14 07:31:07;;;;;;;15.40;13.65;;;20.90;99.90;;;;;;4794203;29;20042;-83
2021/07/14 07:33:33;;;;;;;19.30;16.17;;;20.90;99.90;;;;;;4772541;29;20051;-81
2021/07/14 07:36:00;;;;;;;19.52;15.65;;;21.00;99.90;;;;;;4774239;29;20050;-81
2021/07/14 07:38:26;;;;;;;21.05;15.32;;;21.10;99.90;;;;;;4801663;29;20051;-81
2021/07/14 07:40:54;;;;;;;19.48;16.52;;;21.00;99.90;;;;;;4799613;29;20046;-82
2021/07/14 07:43:22;;;;;;;18.48;15.82;;;21.10;99.90;;;;;;4786169;29;20076;-81
2021/07/14 07:45:48;;;;;;;20.30;16.45;;;21.10;99.90;;;;;;4806073;29;20380;-81
2021/07/14 07:48:15;;;;;;;17.13;13.63;;;21.20;99.90;;;;;;4770588;29;20814;-82
2021/07/14 07:50:41;;;;;;;15.55;13.30;;;21.20;99.90;;;;;;4784779;29;20420;-81
2021/07/14 07:53:08;;;;;;;17.05;15.25;;;21.20;99.90;;;;;;4801360;29;20035;-81
2021/07/14 07:55:35;;;;;;;16.98;14.60;;;21.20;99.90;;;;;;4801447;29;20047;-82
2021/07/14 07:58:01;;;;;;;16.67;14.18;;;21.20;99.90;;;;;;4800874;29;20493;-81
2021/07/14 08:00:27;;;;;;;18.25;14.95;;;21.10;99.90;;;;;;4797652;29;20504;-81
2021/07/14 08:02:56;;;;;;;15.60;13.48;;;21.10;99.90;;;;;;4784837;29;20061;-81
2021/07/14 08:05:22;;;;;;;21.15;16.05;;;21.10;99.90;;;;;;4772618;29;20058;-81
2021/07/14 08:07:52;;;;;;;22.77;17.08;;;21.10;99.90;;;;;;4772389;29;20502;-81
2021/07/14 08:10:18;;;;;;;16.02;13.45;;;21.20;99.90;;;;;;4803169;29;20042;-82
2021/07/14 08:12:44;;;;;;;18.58;14.95;;;21.20;99.90;;;;;;4771151;29;20136;-80
2021/07/14 08:15:11;;;;;;;17.77;15.30;;;21.20;99.90;;;;;;4786474;29;20074;-81
2021/07/14 08:17:38;;;;;;;19.73;16.35;;;21.30;99.90;;;;;;4789397;29;20060;-80
2021/07/14 08:20:07;;;;;;;22.70;17.17;;;21.20;99.90;;;;;;4785781;29;20073;-81
2021/07/14 08:22:34;;;;;;;21.33;17.63;;;21.20;99.90;;;;;;4787557;29;20058;-75
2021/07/14 08:25:01;;;;;;;17.13;14.93;;;21.30;99.90;;;;;;4806540;29;20046;-75
2021/07/14 08:27:27;;;;;;;15.48;13.13;;;21.30;99.90;;;;;;4789605;29;20051;-76
2021/07/14 08:29:58;;;;;;;18.25;14.73;;;21.40;99.90;;;;;;4760947;29;20085;-75
2021/07/14 08:32:26;;;;;;;15.45;13.07;;;21.40;99.90;;;;;;4803999;29;20422;-75
2021/07/14 08:34:54;;;;;;;18.45;14.93;;;21.50;99.90;;;;;;4791796;29;20050;-75
2021/07/14 08:37:22;;;;;;;19.85;15.52;;;21.50;99.90;;;;;;4788946;29;20038;-75
2021/07/14 08:39:50;;;;;;;23.95;17.15;;;21.60;99.90;;;;;;4803181;29;20047;-75
2021/07/14 08:42:18;;;;;;;22.30;17.17;;;21.50;99.90;;;;;;4787973;29;20077;-75
2021/07/14 08:44:45;;;;;;;24.45;18.77;;;21.60;99.90;;;;;;4776357;29;20081;-75
2021/07/14 08:47:12;;;;;;;18.80;14.60;;;21.50;99.90;;;;;;4791623;29;20042;-75
2021/07/14 08:49:41;;;;;;;23.15;17.60;;;21.40;99.90;;;;;;4804464;29;20485;-76
2021/07/14 08:52:09;;;;;;;20.15;16.20;;;21.40;99.90;;;;;;4773824;29;20367;-77
2021/07/14 08:54:42;;;;;;;18.38;15.05;;;21.30;99.90;;;;;;4790328;29;20054;-76
2021/07/14 08:57:09;;;;;;;22.02;16.42;;;21.30;99.90;;;;;;4809603;29;20050;-75
2021/07/14 08:59:36;;;;;;;16.80;14.55;;;21.20;99.90;;;;;;4787406;29;20081;-75
2021/07/14 09:02:03;;;;;;;20.10;15.13;;;21.20;99.90;;;;;;4773005;29;20047;-76
2021/07/14 09:04:29;;;;;;;20.73;15.50;;;21.20;99.90;;;;;;4787326;29;20046;-76
2021/07/14 09:06:56;;;;;;;17.80;14.02;;;21.20;99.90;;;;;;4787586;29;20515;-76
2021/07/14 09:09:23;;;;;;;21.73;16.65;;;21.30;99.90;;;;;;4786945;29;20050;-75
2021/07/14 09:11:58;;;;;;;17.35;14.57;;;21.30;99.90;;;;;;4787066;29;20392;-75
2021/07/14 09:14:37;;;;;;;19.85;14.98;;;21.30;99.90;;;;;;4788160;29;20039;-75
2021/07/14 09:17:25;;;;;;;18.75;15.10;;;21.30;99.90;;;;;;4804562;29;20042;-75
2021/07/14 09:20:11;;;;;;;19.23;15.68;;;21.40;99.90;;;;;;4760634;29;20901;-75
2021/07/14 09:22:38;;;;;;;19.80;15.75;;;21.50;99.90;;;;;;4773120;29;20054;-75
2021/07/14 09:25:17;;;;;;;22.70;18.90;;;21.50;99.90;;;;;;4772236;29;20504;-76
2021/07/14 09:27:58;;;;;;;18.55;15.50;;;21.60;99.90;;;;;;4788628;29;20049;-76
2021/07/14 09:30:27;;;;;;;24.57;18.00;;;21.70;99.90;;;;;;4789897;29;20051;-76
2021/07/14 09:32:59;;;;;;;20.73;15.40;;;21.60;99.90;;;;;;4761095;29;20050;-77
2021/07/14 09:35:42;;;;;;;;;;;21.60;99.90;;;;;;4801529;29;20038;-76
2021/07/14 09:38:15;;;;;;;19.15;15.23;;;21.60;99.90;;;;;;4784488;29;20279;-75
2021/07/14 09:40:44;;;;;;;20.15;15.20;;;21.50;99.90;;;;;;4803762;29;20054;-75
2021/07/14 09:43:13;;;;;;;20.00;16.10;;;21.40;99.90;;;;;;4780918;29;20065;-76
2021/07/14 09:45:43;;;;;;;22.67;18.75;;;21.40;99.90;;;;;;4781947;29;20410;-75
2021/07/14 09:48:12;;;;;;;22.13;17.08;;;21.50;99.90;;;;;;4784818;29;20051;-75
2021/07/14 09:50:45;;;;;;;22.38;16.40;;;21.40;99.90;;;;;;4799107;29;20026;-75
2021/07/14 09:53:14;;;;;;;20.90;14.07;;;21.50;99.90;;;;;;4798724;29;20031;-76
2021/07/14 09:55:41;;;;;;;21.40;14.90;;;21.50;99.90;;;;;;4770257;29;20051;-75
2021/07/14 09:58:20;;;;;;;20.17;14.85;;;21.50;99.90;;;;;;4772259;29;20085;-76
2021/07/14 10:00:52;;;;;;;24.48;19.13;;;21.50;99.90;;;;;;4790462;29;20597;-75
2021/07/14 10:03:21;;;;;;;22.00;15.60;;;21.60;99.90;;;;;;4759308;29;20050;-75
2021/07/14 10:05:49;;;;;;;30.58;23.08;;;21.60;99.90;;;;;;4804526;29;20042;-77
2021/07/14 10:08:24;;;;;;;25.58;19.00;;;21.60;99.90;;;;;;4758784;29;20065;-77
2021/07/14 10:11:05;;;;;;;26.33;20.13;;;21.60;99.90;;;;;;4773415;29;20051;-77
2021/07/14 10:13:32;;;;;;;24.25;18.05;;;21.60;99.90;;;;;;4805975;29;20035;-77
2021/07/14 10:16:03;;;;;;;28.45;20.17;;;21.60;99.90;;;;;;4753014;29;20054;-77
2021/07/14 10:18:32;;;;;;;22.30;18.52;;;21.60;99.90;;;;;;4773065;29;20038;-77
2021/07/14 10:21:02;;;;;;;24.90;19.30;;;21.70;99.90;;;;;;4805789;29;20038;-75
2021/07/14 10:23:31;;;;;;;24.95;19.75;;;21.70;99.90;;;;;;4788691;29;20052;-75
2021/07/14 10:25:59;;;;;;;26.52;22.35;;;21.70;99.90;;;;;;4770787;29;20046;-77
2021/07/14 10:28:28;;;;;;;25.90;20.40;;;21.80;99.90;;;;;;4784305;29;20042;-76
2021/07/14 10:30:56;;;;;;;29.13;20.75;;;21.70;99.90;;;;;;4802760;29;20042;-77
2021/07/14 10:33:24;;;;;;;22.83;18.38;;;21.60;99.90;;;;;;4786577;29;20039;-80
2021/07/14 10:35:53;;;;;;;22.20;17.90;;;21.60;99.90;;;;;;4785439;29;20038;-75
2021/07/14 10:38:25;;;;;;;27.92;22.05;;;21.70;99.90;;;;;;4787467;29;20093;-76
2021/07/14 10:40:53;;;;;;;24.88;19.20;;;21.70;99.90;;;;;;4801433;29;20065;-76
2021/07/14 10:43:23;;;;;;;28.38;22.92;;;21.70;99.90;;;;;;4788781;29;20081;-77
2021/07/14 10:45:50;;;;;;;27.73;21.67;;;21.70;99.90;;;;;;4805910;29;20042;-78
2021/07/14 10:48:20;;;;;;;24.10;18.65;;;21.60;99.90;;;;;;4782021;29;20055;-76
2021/07/14 10:50:47;;;;;;;20.92;17.48;;;21.60;99.90;;;;;;4788980;29;20050;-76
2021/07/14 10:53:17;;;;;;;26.95;19.08;;;21.60;99.90;;;;;;4802684;29;20054;-76
2021/07/14 10:55:45;;;;;;;20.95;16.15;;;21.60;99.90;;;;;;4781736;29;20047;-76
2021/07/14 10:58:16;;;;;;;29.38;21.05;;;21.50;99.90;;;;;;4781501;29;20124;-76
2021/07/14 11:00:44;;;;;;;21.02;15.48;;;21.50;99.90;;;;;;4792554;29;20054;-76
2021/07/14 11:03:33;;;;;;;16.38;13.68;;;21.50;99.90;;;;;;4770621;29;20085;-76
2021/07/14 11:06:00;;;;;;;19.55;14.40;;;21.50;99.90;;;;;;4777790;29;20046;-80
2021/07/14 11:08:47;;;;;;;17.30;14.27;;;21.60;99.90;;;;;;4770070;29;20399;-77
2021/07/14 11:11:24;;;;;;;15.02;13.05;;;21.60;99.90;;;;;;4800550;29;20041;-76
2021/07/14 11:14:08;;;;;;;20.80;14.88;;;21.60;99.90;;;;;;4783651;29;20558;-76
2021/07/14 11:16:41;;;;;;;17.90;14.05;;;21.60;99.90;;;;;;4764924;29;20063;-77
2021/07/14 11:19:12;;;;;;;18.73;13.23;;;21.60;99.90;;;;;;4747300;29;20062;-76
2021/07/14 11:21:48;;;;;;;22.60;14.20;;;21.50;99.90;;;;;;4784671;29;20043;-76
2021/07/14 11:24:33;;;;;;;21.60;15.48;;;21.40;99.90;;;;;;4783171;29;20078;-76
2021/07/14 11:27:38;;;;;;;24.38;17.45;;;21.40;99.90;;;;;;4797724;29;20042;-75
2021/07/14 11:30:04;;;;;;;24.98;17.13;;;21.30;99.90;;;;;;4783361;29;20050;-76
2021/07/14 11:32:34;;;;;;;27.33;18.10;;;21.40;99.90;;;;;;4804201;29;20043;-76
2021/07/14 11:35:32;;;;;;;26.27;16.75;;;21.30;99.90;;;;;;4772577;29;20414;-76
2021/07/14 11:38:02;;;;;;;24.08;17.27;;;21.30;99.90;;;;;;4801546;29;20050;-76
2021/07/14 11:40:40;;;;;;;27.98;17.88;;;21.20;99.90;;;;;;4785317;29;20058;-76
2021/07/14 11:43:10;;;;;;;26.23;17.25;;;21.20;99.90;;;;;;4782814;29;20059;-77
2021/07/14 11:45:42;;;;;;;22.80;16.67;;;21.10;99.90;;;;;;4771129;29;20065;-76
2021/07/14 11:48:15;;;;;;;19.58;15.15;;;21.00;99.90;;;;;;4786519;29;20487;-77
2021/07/14 11:51:03;;;;;;;27.17;18.30;;;21.10;99.90;;;;;;4801218;29;20509;-78
2021/07/14 11:53:35;;;;;;;21.90;16.45;;;21.10;99.90;;;;;;4801080;29;20042;-78
2021/07/14 11:56:21;;;;;;;24.67;18.52;;;21.10;99.90;;;;;;4768395;29;20047;-79
2021/07/14 11:58:52;;;;;;;27.92;17.45;;;21.10;99.90;;;;;;4790153;29;20041;-77
2021/07/14 12:01:22;;;;;;;20.83;16.23;;;21.10;99.90;;;;;;4798628;29;20378;-76
2021/07/14 12:04:01;;;;;;;18.00;13.30;;;21.10;99.90;;;;;;4773245;29;20055;-77
2021/07/14 12:06:44;;;;;;;19.75;16.15;;;21.10;99.90;;;;;;4783189;29;20054;-77
2021/07/14 12:09:13;;;;;;;22.52;18.05;;;21.20;99.90;;;;;;4802763;29;20038;-77
2021/07/14 12:11:57;;;;;;;26.33;20.77;;;21.20;99.90;;;;;;4786200;29;20039;-77
2021/07/14 12:14:33;;;;;;;20.02;16.60;;;21.30;99.90;;;;;;4800249;29;20492;-77
2021/07/14 12:17:03;;;;;;;18.63;15.60;;;21.30;99.90;;;;;;4786278;29;20046;-77
2021/07/14 12:19:31;;;;;;;21.77;15.85;;;21.30;99.90;;;;;;4779377;29;20038;-77
2021/07/14 12:22:10;;;;;;;22.98;17.60;;;21.30;99.90;;;;;;4799699;29;20053;-77
2021/07/14 12:24:42;;;;;;;21.17;17.23;;;21.30;99.90;;;;;;4799879;29;20042;-76
2021/07/14 12:27:13;;;;;;;20.40;15.40;;;21.30;99.90;;;;;;4772472;29;20104;-76
2021/07/14 12:29:41;;;;;;;23.17;17.30;;;21.30;99.90;;;;;;4800502;29;20043;-77
2021/07/14 12:32:08;;;;;;;21.77;14.55;;;21.30;99.90;;;;;;4784593;29;20479;-77
2021/07/14 12:34:35;;;;;;;19.85;15.40;;;21.30;99.90;;;;;;4781810;29;20051;-77
2021/07/14 12:37:04;;;;;;;25.42;18.65;;;21.30;99.90;;;;;;4781681;29;20814;-77
2021/07/14 12:39:33;;;;;;;18.50;15.60;;;21.30;99.90;;;;;;4782259;29;20783;-77
2021/07/14 12:42:02;;;;;;;18.67;14.23;;;21.20;99.90;;;;;;4801491;29;20498;-76
2021/07/14 12:44:29;;;;;;;18.98;16.95;;;21.20;99.90;;;;;;4807182;29;20035;-77
2021/07/14 12:47:09;;;;;;;19.55;15.32;;;21.30;99.90;;;;;;4767695;29;20054;-77
2021/07/14 12:49:35;;;;;;;14.68;12.73;;;21.40;99.90;;;;;;4754681;29;20814;-77
2021/07/14 12:52:06;;;;;;;16.08;13.65;;;21.50;99.90;;;;;;4770941;29;20050;-78